This is the latest recevied weather packets stored in our database for station/object KR0L-13. If no packets are shown the sender has not sent any weather packets the latest 1 day(s).
| Time | Temp. | Humidity | Pressure | Rain* | Wind** | Luminosity | Snow |
|---|---|---|---|---|---|---|---|
| 1778095821 | 14.44° C | 51% | 1019.6 hPa | 0 mm | - | - | - |
| 1778094021 | 13.89° C | 49% | 1019.8 hPa | 0 mm | - | - | - |
| 1778092221 | 13.33° C | 50% | 1019.8 hPa | 0 mm | - | - | - |
| 1778091621 | 13.33° C | 50% | 1019.9 hPa | 0 mm | - | - | - |
| 1778090421 | 12.78° C | 50% | 1020.1 hPa | 0 mm | - | - | - |
| 1778089821 | 12.78° C | 55% | 1020.3 hPa | 0 mm | - | - | - |
| 1778089221 | 12.78° C | 52% | 1020.3 hPa | 0 mm | - | - | - |
| 1778088621 | 12.22° C | 55% | 1020.3 hPa | 0 mm | - | - | - |
| 1778088021 | 12.22° C | 60% | 1020.3 hPa | 0 mm | - | - | - |
| 1778087421 | 12.22° C | 62% | 1020.3 hPa | 0 mm | - | - | - |
| 1778086821 | 11.67° C | 67% | 1020.4 hPa | 0 mm | - | - | - |
| 1778086221 | 10.56° C | 67% | 1020.3 hPa | 0 mm | - | - | - |
| 1778085621 | 10.56° C | 68% | 1020.4 hPa | 0 mm | - | - | - |
| 1778085021 | 10.56° C | 71% | 1020.5 hPa | 0 mm | - | - | - |
| 1778083821 | 10° C | 74% | 1020.4 hPa | 0 mm | - | - | - |
| 1778082621 | 9.44° C | 76% | 1020.7 hPa | 0 mm | - | - | - |
| 1778065222 | 7.22° C | 92% | 1017 hPa | 0 mm | - | - | - |
| 1778063422 | 7.22° C | 93% | 1017.1 hPa | 0 mm | - | - | - |
| 1778061022 | 6.67° C | 94% | 1016.9 hPa | 0 mm | - | - | - |
| 1778060422 | 6.67° C | 94% | 1016.9 hPa | 0 mm | - | - | - |
| 1778059822 | 6.67° C | 93% | 1017 hPa | 0 mm | - | - | - |
| 1778059222 | 6.67° C | 93% | 1016.8 hPa | 0 mm | - | - | - |
| 1778058622 | 6.67° C | 93% | 1016.8 hPa | 0 mm | - | - | - |
| 1778058022 | 6.67° C | 93% | 1016.8 hPa | 0 mm | - | - | - |
| 1778057422 | 6.67° C | 93% | 1017.2 hPa | 0 mm | - | - | - |
* Rain latest hour (hover to see other rain measurements)
** Current wind speed in m/s (hover to see current wind gust speed)